Tunnel Hill, Georgia
Current Conditions -  °F | °C
As of 7:35 PM on Friday 19 Dec 2014 (Local Time) from KDNN Reporting Station
Broken Clouds Broken Clouds  
Wind Chill: 37°   Ceiling: 11000
Heat Index: 43°   Visibility: 10mi
Dew Point: 32°   Wind: 9mph
Humidity: 66%   Direction: 340°NNW
Pressure: 30.16"   Gusts: NA
Location:  34.84°N, 85.04°W
Report Text: KDNN 200035Z AUTO 34008KT 10SM BKN110 06/00 A3016 RMK AO2
Loading
Personal Weather Stations






























Interactive Weather Map New forecast layout! Learn more

10-Day Weather Forecast

Advertisements
Track Severe Weather on mobile